MSC Caitlin — D5PF3 — position and weather

sailwx.info

Track history (hours):
 
Tides and Currents Weather Stations Pressure Air Temp Water Temp Dewpoint Dewpoint Depression Visibility Wind Speed Wind Dir Waves Ship Positions

MSC Caitlin

Last reported at 2018-Aug-12 15:10 UTC. Time now 2018-Aug-14 23:44 UTC.
Position N 31°49' E 034°34'.

Length 216 m; draft 7.8 m.

Type: Ship (hazmat cat C). MMSI: 636018323.

Date/timePositionNaut miles runAvg speedWind from/ knotsBaromVisibWave heightAir tempDewpointWater temp
2018-Aug-12 15:10N 31°49' E 034°34'0 0.0
2018-Aug-11 15:19N 31°49' E 034°34'0 0.0
2018-Aug-11 14:49N 31°49' E 034°34'0 0.0
2018-Aug-11 14:28N 31°49' E 034°34'0 0.0
2018-Aug-11 13:52N 31°49' E 034°34'0 0.0
2018-Aug-11 13:25N 31°49' E 034°34'0 0.0
2018-Aug-11 12:58N 31°49' E 034°34'0 0.0
2018-Aug-11 12:28N 31°49' E 034°34'0 0.0
2018-Aug-11 11:58N 31°49' E 034°34'0 0.0
2018-Aug-11 11:28N 31°49' E 034°34'0 0.0
2018-Aug-11 10:58N 31°49' E 034°34'20 1.2
2018-Aug-10 18:31N 32°09' E 034°34'214.9
2018-Aug-10 18:23N 32°11' E 034°35'615.0
2018-Aug-10 18:00N 32°17' E 034°37'714.9
2018-Aug-10 17:30N 32°24' E 034°39'714.8
2018-Aug-10 17:00N 32°31' E 034°42'714.6
2018-Aug-10 16:30N 32°38' E 034°44'714.6
2018-Aug-10 16:00N 32°45' E 034°47'714.0
2018-Aug-10 15:28N 32°52' E 034°50'714.3
2018-Aug-10 15:00N 32°52' E 034°58'4 0.2
2018-Aug-09 17:00N 32°49' E 035°01'2 0.3
2018-Aug-09 07:53N 32°51' E 034°60'1 3.0
2018-Aug-09 07:30N 32°53' E 034°59'0 0.1
2018-Aug-09 06:57N 32°53' E 034°59'0 0.0
2018-Aug-09 06:30N 32°53' E 034°59'0 0.0
2018-Aug-09 05:57N 32°53' E 034°59'0 0.0
2018-Aug-09 05:30N 32°53' E 034°59'0 0.0
2018-Aug-09 05:00N 32°53' E 034°59'0 0.0
2018-Aug-09 04:27N 32°53' E 034°59'0 0.1
2018-Aug-09 04:00N 32°53' E 034°59'0 0.0
2018-Aug-09 03:30N 32°53' E 034°59'0 0.0
2018-Aug-09 03:00N 32°52' E 034°59'0 0.0
2018-Aug-09 02:30N 32°53' E 034°59'0 0.0
2018-Aug-09 02:00N 32°53' E 034°59'0 0.0
2018-Aug-09 01:30N 32°53' E 034°59'0 0.0
2018-Aug-09 00:57N 32°53' E 034°59'0 0.0
2018-Aug-09 00:30N 32°53' E 034°59'0 0.0
2018-Aug-09 00:00N 32°53' E 034°59'0 0.0
2018-Aug-08 23:30N 32°53' E 034°59'0 0.0
2018-Aug-08 23:00N 32°53' E 034°59'0 0.0
2018-Aug-08 22:30N 32°53' E 034°59'0 0.0
2018-Aug-08 21:57N 32°53' E 034°59'0 0.0
2018-Aug-08 21:27N 32°53' E 034°59'0 0.0
2018-Aug-08 20:57N 32°53' E 034°59'0 0.0
2018-Aug-08 20:30N 32°53' E 034°59'0 0.0
2018-Aug-08 19:57N 32°53' E 034°59'0 0.0
2018-Aug-08 19:30N 32°52' E 034°59'0 0.0
2018-Aug-08 19:00N 32°53' E 034°59'0 0.0
2018-Aug-08 18:27N 32°53' E 034°59'0 0.0
2018-Aug-08 18:00N 32°53' E 034°59'0 0.0
2018-Aug-08 17:30N 32°52' E 034°59'0 0.0
2018-Aug-08 16:48N 32°52' E 034°59'0 0.0
2018-Aug-08 16:30N 32°52' E 034°59'0 0.0
2018-Aug-08 16:00N 32°52' E 034°59'0 0.0
2018-Aug-08 15:30N 32°52' E 034°59'0 0.0
2018-Aug-08 15:00N 32°52' E 034°59'0 0.0
2018-Aug-08 14:30N 32°52' E 034°59'0 0.0
2018-Aug-08 13:57N 32°53' E 034°59'0 0.0
2018-Aug-08 13:30N 32°53' E 034°59'0 0.0
2018-Aug-08 13:00N 32°52' E 034°59'0 0.0
2018-Aug-08 12:27N 32°52' E 034°59'0 0.0
2018-Aug-08 11:48N 32°53' E 034°59'0 0.0
2018-Aug-08 11:30N 32°53' E 034°59'0 0.0
2018-Aug-08 11:00N 32°53' E 034°59'0 0.0
2018-Aug-08 10:30N 32°53' E 034°59'0 0.0
2018-Aug-08 10:00N 32°53' E 034°59'0 0.0
2018-Aug-08 09:30N 32°52' E 034°59'0 0.0
2018-Aug-08 09:00N 32°52' E 034°59'0 0.0
2018-Aug-08 08:30N 32°52' E 034°59'0 0.0
2018-Aug-08 08:00N 32°53' E 034°59'0 0.0
2018-Aug-08 07:30N 32°53' E 034°59'0 0.0
2018-Aug-08 06:57N 32°53' E 034°59'0 0.0
2018-Aug-08 06:27N 32°52' E 034°59'0 0.0
2018-Aug-08 06:00N 32°53' E 034°59'0 0.0
2018-Aug-08 05:30N 32°53' E 034°59'0 0.0
2018-Aug-08 05:00N 32°52' E 034°59'0 0.0
2018-Aug-08 04:30N 32°53' E 034°59'0 0.0
2018-Aug-08 04:00N 32°53' E 034°59'0 0.0
2018-Aug-08 03:24N 32°52' E 034°59'0 0.0
2018-Aug-08 03:00N 32°52' E 034°59'0 0.0
2018-Aug-08 02:30N 32°52' E 034°59'0 0.0
2018-Aug-08 02:00N 32°52' E 034°59'0 0.0
2018-Aug-08 01:30N 32°52' E 034°59'0 0.0
2018-Aug-08 01:00N 32°52' E 034°59'0 0.1
2018-Aug-08 00:30N 32°53' E 034°59'0 0.0
2018-Aug-08 00:00N 32°52' E 034°59'0 0.0
2018-Aug-07 23:27N 32°52' E 034°59'0 0.0
2018-Aug-07 23:00N 32°52' E 034°59'0 0.0
2018-Aug-07 22:27N 32°52' E 034°59'0 0.1
2018-Aug-07 22:00N 32°52' E 034°59'0 0.0
2018-Aug-07 21:30N 32°52' E 034°59'0 0.0
2018-Aug-07 21:00N 32°52' E 034°59'0 0.0
2018-Aug-07 20:27N 32°53' E 034°59'0 0.0
2018-Aug-07 20:00N 32°52' E 034°59'0 0.0
2018-Aug-07 19:27N 32°52' E 034°59'0 0.0
2018-Aug-07 18:57N 32°52' E 034°59'0 0.0
2018-Aug-07 18:30N 32°52' E 034°59'0 0.0
2018-Aug-07 18:00N 32°52' E 034°59'0 0.0
2018-Aug-07 17:27N 32°52' E 034°59'0 0.0
2018-Aug-07 17:00N 32°52' E 034°59'0 0.0
2018-Aug-07 16:30N 32°52' E 034°59'0 0.0
2018-Aug-07 16:00N 32°52' E 034°59'0 0.0
2018-Aug-07 15:30N 32°52' E 034°59'0 0.0
2018-Aug-07 14:57N 32°52' E 034°59'0 0.0
2018-Aug-07 14:30N 32°52' E 034°59'0 0.0
2018-Aug-07 14:00N 32°52' E 034°59'0 0.0
2018-Aug-07 13:27N 32°52' E 034°59'0 0.0
2018-Aug-07 12:24N 32°52' E 034°59'0 0.0
2018-Aug-07 10:15N 32°52' E 034°59'0 0.1
2018-Aug-07 09:58N 32°52' E 034°59'0 0.0
2018-Aug-07 09:24N 32°52' E 034°59'0 0.0
2018-Aug-07 08:51N 32°52' E 034°59'0 0.0
2018-Aug-07 07:33N 32°52' E 034°59'0 0.1
2018-Aug-07 07:27N 32°52' E 034°59'0 0.0
2018-Aug-07 05:24N 32°52' E 034°59'0 0.0
2018-Aug-07 04:21N 32°52' E 034°59'0 0.0
2018-Aug-07 03:57N 32°52' E 034°59'0 0.0
2018-Aug-07 03:27N 32°52' E 034°59'0 0.0
2018-Aug-07 02:55N 32°52' E 034°59'0 0.0
2018-Aug-07 02:18N 32°52' E 034°59'0 0.0
2018-Aug-07 02:00N 32°52' E 034°59'0 0.0
2018-Aug-07 00:39N 32°52' E 034°59'0 0.0
2018-Aug-06 23:27N 32°52' E 034°59'0 0.0
2018-Aug-06 23:00N 32°52' E 034°59'0 0.0
2018-Aug-06 21:07N 32°52' E 034°59'0 0.0
2018-Aug-06 20:52N 32°52' E 034°59'0 0.1
2018-Aug-06 20:24N 32°53' E 034°59'6 4.6
2018-Aug-06 19:01N 32°54' E 034°52'012.7
2018-Aug-06 19:00N 32°54' E 034°52'714.7
2018-Aug-06 18:30N 32°55' E 034°43'51014.6
2018-Aug-05 07:35N 37°28' E 025°56'114.4
2018-Aug-05 07:30N 37°30' E 025°55'714.7
2018-Aug-05 07:00N 37°36' E 025°52'714.6
2018-Aug-05 06:30N 37°43' E 025°50'92 1.8
2018-Aug-03 03:32N 37°36' E 023°53'214.6
2018-Aug-03 03:24N 37°36' E 023°51'513.4
2018-Aug-03 03:01N 37°39' E 023°45'714.2
2018-Aug-03 02:31N 37°44' E 023°39'714.8
2018-Aug-03 02:01N 37°51' E 023°36'611.4
2018-Aug-03 01:30N 37°57' E 023°36'0 0.9
2018-Aug-03 01:00N 37°57' E 023°36'0 0.0
2018-Aug-03 00:30N 37°57' E 023°36'0 0.0
2018-Aug-03 00:00N 37°57' E 023°36'0 0.0
2018-Aug-02 23:30N 37°57' E 023°36'0 0.0
2018-Aug-02 23:00N 37°57' E 023°36'0 0.0
2018-Aug-02 22:30N 37°57' E 023°36'0 0.0
2018-Aug-02 22:00N 37°57' E 023°36'0 0.0
2018-Aug-02 21:30N 37°57' E 023°36'0 0.0
2018-Aug-02 21:00N 37°57' E 023°36'0 0.0
2018-Aug-02 20:30N 37°57' E 023°36'0 0.0
2018-Aug-02 20:00N 37°57' E 023°36'0 0.0
2018-Aug-02 19:30N 37°57' E 023°36'0 0.0
2018-Aug-02 19:00N 37°57' E 023°36'0 0.0
2018-Aug-02 18:30N 37°57' E 023°36'0 0.0
2018-Aug-02 18:00N 37°57' E 023°36'0 0.0
2018-Aug-02 17:30N 37°57' E 023°36'0 0.0
2018-Aug-02 17:00N 37°57' E 023°36'0 0.0
2018-Aug-02 16:30N 37°57' E 023°36'0 0.0
2018-Aug-02 16:00N 37°57' E 023°36'0 0.0
2018-Aug-02 15:30N 37°57' E 023°36'  
Track history (hours):
 
Tides and Currents Weather Stations Pressure Air Temp Water Temp Dewpoint Dewpoint Depression Visibility Wind Speed Wind Dir Waves Ship Positions

MSC Caitlin

Last reported at 2018-Aug-12 15:10 UTC. Time now 2018-Aug-14 23:44 UTC.
Position N 31°49' E 034°34'.

Length 216 m; draft 7.8 m.

Type: Ship (hazmat cat C). MMSI: 636018323.

Date/timePositionNaut miles runAvg speedWind from/ knotsBaromVisibWave heightAir tempDewpointWater temp
2018-Aug-12 15:10N 31°49' E 034°34'0 0.0
2018-Aug-11 15:19N 31°49' E 034°34'0 0.0
2018-Aug-11 14:49N 31°49' E 034°34'0 0.0
2018-Aug-11 14:28N 31°49' E 034°34'0 0.0
2018-Aug-11 13:52N 31°49' E 034°34'0 0.0
2018-Aug-11 13:25N 31°49' E 034°34'0 0.0
2018-Aug-11 12:58N 31°49' E 034°34'0 0.0
2018-Aug-11 12:28N 31°49' E 034°34'0 0.0
2018-Aug-11 11:58N 31°49' E 034°34'0 0.0
2018-Aug-11 11:28N 31°49' E 034°34'0 0.0
2018-Aug-11 10:58N 31°49' E 034°34'20 1.2
2018-Aug-10 18:31N 32°09' E 034°34'214.9
2018-Aug-10 18:23N 32°11' E 034°35'615.0
2018-Aug-10 18:00N 32°17' E 034°37'714.9
2018-Aug-10 17:30N 32°24' E 034°39'714.8
2018-Aug-10 17:00N 32°31' E 034°42'714.6
2018-Aug-10 16:30N 32°38' E 034°44'714.6
2018-Aug-10 16:00N 32°45' E 034°47'714.0
2018-Aug-10 15:28N 32°52' E 034°50'714.3
2018-Aug-10 15:00N 32°52' E 034°58'4 0.2
2018-Aug-09 17:00N 32°49' E 035°01'2 0.3
2018-Aug-09 07:53N 32°51' E 034°60'1 3.0
2018-Aug-09 07:30N 32°53' E 034°59'0 0.1
2018-Aug-09 06:57N 32°53' E 034°59'0 0.0
2018-Aug-09 06:30N 32°53' E 034°59'0 0.0
2018-Aug-09 05:57N 32°53' E 034°59'0 0.0
2018-Aug-09 05:30N 32°53' E 034°59'0 0.0
2018-Aug-09 05:00N 32°53' E 034°59'0 0.0
2018-Aug-09 04:27N 32°53' E 034°59'0 0.1
2018-Aug-09 04:00N 32°53' E 034°59'0 0.0
2018-Aug-09 03:30N 32°53' E 034°59'0 0.0
2018-Aug-09 03:00N 32°52' E 034°59'0 0.0
2018-Aug-09 02:30N 32°53' E 034°59'0 0.0
2018-Aug-09 02:00N 32°53' E 034°59'0 0.0
2018-Aug-09 01:30N 32°53' E 034°59'0 0.0
2018-Aug-09 00:57N 32°53' E 034°59'0 0.0
2018-Aug-09 00:30N 32°53' E 034°59'0 0.0
2018-Aug-09 00:00N 32°53' E 034°59'0 0.0
2018-Aug-08 23:30N 32°53' E 034°59'0 0.0
2018-Aug-08 23:00N 32°53' E 034°59'0 0.0
2018-Aug-08 22:30N 32°53' E 034°59'0 0.0
2018-Aug-08 21:57N 32°53' E 034°59'0 0.0
2018-Aug-08 21:27N 32°53' E 034°59'0 0.0
2018-Aug-08 20:57N 32°53' E 034°59'0 0.0
2018-Aug-08 20:30N 32°53' E 034°59'0 0.0
2018-Aug-08 19:57N 32°53' E 034°59'0 0.0
2018-Aug-08 19:30N 32°52' E 034°59'0 0.0
2018-Aug-08 19:00N 32°53' E 034°59'0 0.0
2018-Aug-08 18:27N 32°53' E 034°59'0 0.0
2018-Aug-08 18:00N 32°53' E 034°59'0 0.0
2018-Aug-08 17:30N 32°52' E 034°59'0 0.0
2018-Aug-08 16:48N 32°52' E 034°59'0 0.0
2018-Aug-08 16:30N 32°52' E 034°59'0 0.0
2018-Aug-08 16:00N 32°52' E 034°59'0 0.0
2018-Aug-08 15:30N 32°52' E 034°59'0 0.0
2018-Aug-08 15:00N 32°52' E 034°59'0 0.0
2018-Aug-08 14:30N 32°52' E 034°59'0 0.0
2018-Aug-08 13:57N 32°53' E 034°59'0 0.0
2018-Aug-08 13:30N 32°53' E 034°59'0 0.0
2018-Aug-08 13:00N 32°52' E 034°59'0 0.0
2018-Aug-08 12:27N 32°52' E 034°59'0 0.0
2018-Aug-08 11:48N 32°53' E 034°59'0 0.0
2018-Aug-08 11:30N 32°53' E 034°59'0 0.0
2018-Aug-08 11:00N 32°53' E 034°59'0 0.0
2018-Aug-08 10:30N 32°53' E 034°59'0 0.0
2018-Aug-08 10:00N 32°53' E 034°59'0 0.0
2018-Aug-08 09:30N 32°52' E 034°59'0 0.0
2018-Aug-08 09:00N 32°52' E 034°59'0 0.0
2018-Aug-08 08:30N 32°52' E 034°59'0 0.0
2018-Aug-08 08:00N 32°53' E 034°59'0 0.0
2018-Aug-08 07:30N 32°53' E 034°59'0 0.0
2018-Aug-08 06:57N 32°53' E 034°59'0 0.0
2018-Aug-08 06:27N 32°52' E 034°59'0 0.0
2018-Aug-08 06:00N 32°53' E 034°59'0 0.0
2018-Aug-08 05:30N 32°53' E 034°59'0 0.0
2018-Aug-08 05:00N 32°52' E 034°59'0 0.0
2018-Aug-08 04:30N 32°53' E 034°59'0 0.0
2018-Aug-08 04:00N 32°53' E 034°59'0 0.0
2018-Aug-08 03:24N 32°52' E 034°59'0 0.0
2018-Aug-08 03:00N 32°52' E 034°59'0 0.0
2018-Aug-08 02:30N 32°52' E 034°59'0 0.0
2018-Aug-08 02:00N 32°52' E 034°59'0 0.0
2018-Aug-08 01:30N 32°52' E 034°59'0 0.0
2018-Aug-08 01:00N 32°52' E 034°59'0 0.1
2018-Aug-08 00:30N 32°53' E 034°59'0 0.0
2018-Aug-08 00:00N 32°52' E 034°59'0 0.0
2018-Aug-07 23:27N 32°52' E 034°59'0 0.0
2018-Aug-07 23:00N 32°52' E 034°59'0 0.0
2018-Aug-07 22:27N 32°52' E 034°59'0 0.1
2018-Aug-07 22:00N 32°52' E 034°59'0 0.0
2018-Aug-07 21:30N 32°52' E 034°59'0 0.0
2018-Aug-07 21:00N 32°52' E 034°59'0 0.0
2018-Aug-07 20:27N 32°53' E 034°59'0 0.0
2018-Aug-07 20:00N 32°52' E 034°59'0 0.0
2018-Aug-07 19:27N 32°52' E 034°59'0 0.0
2018-Aug-07 18:57N 32°52' E 034°59'0 0.0
2018-Aug-07 18:30N 32°52' E 034°59'0 0.0
2018-Aug-07 18:00N 32°52' E 034°59'0 0.0
2018-Aug-07 17:27N 32°52' E 034°59'0 0.0
2018-Aug-07 17:00N 32°52' E 034°59'0 0.0
2018-Aug-07 16:30N 32°52' E 034°59'0 0.0
2018-Aug-07 16:00N 32°52' E 034°59'0 0.0
2018-Aug-07 15:30N 32°52' E 034°59'0 0.0
2018-Aug-07 14:57N 32°52' E 034°59'0 0.0
2018-Aug-07 14:30N 32°52' E 034°59'0 0.0
2018-Aug-07 14:00N 32°52' E 034°59'0 0.0
2018-Aug-07 13:27N 32°52' E 034°59'0 0.0
2018-Aug-07 12:24N 32°52' E 034°59'0 0.0
2018-Aug-07 10:15N 32°52' E 034°59'0 0.1
2018-Aug-07 09:58N 32°52' E 034°59'0 0.0
2018-Aug-07 09:24N 32°52' E 034°59'0 0.0
2018-Aug-07 08:51N 32°52' E 034°59'0 0.0
2018-Aug-07 07:33N 32°52' E 034°59'0 0.1
2018-Aug-07 07:27N 32°52' E 034°59'0 0.0
2018-Aug-07 05:24N 32°52' E 034°59'0 0.0
2018-Aug-07 04:21N 32°52' E 034°59'0 0.0
2018-Aug-07 03:57N 32°52' E 034°59'0 0.0
2018-Aug-07 03:27N 32°52' E 034°59'0 0.0
2018-Aug-07 02:55N 32°52' E 034°59'0 0.0
2018-Aug-07 02:18N 32°52' E 034°59'0 0.0
2018-Aug-07 02:00N 32°52' E 034°59'0 0.0
2018-Aug-07 00:39N 32°52' E 034°59'0 0.0
2018-Aug-06 23:27N 32°52' E 034°59'0 0.0
2018-Aug-06 23:00N 32°52' E 034°59'0 0.0
2018-Aug-06 21:07N 32°52' E 034°59'0 0.0
2018-Aug-06 20:52N 32°52' E 034°59'0 0.1
2018-Aug-06 20:24N 32°53' E 034°59'6 4.6
2018-Aug-06 19:01N 32°54' E 034°52'012.7
2018-Aug-06 19:00N 32°54' E 034°52'714.7
2018-Aug-06 18:30N 32°55' E 034°43'51014.6
2018-Aug-05 07:35N 37°28' E 025°56'114.4
2018-Aug-05 07:30N 37°30' E 025°55'714.7
2018-Aug-05 07:00N 37°36' E 025°52'714.6
2018-Aug-05 06:30N 37°43' E 025°50'92 1.8
2018-Aug-03 03:32N 37°36' E 023°53'214.6
2018-Aug-03 03:24N 37°36' E 023°51'513.4
2018-Aug-03 03:01N 37°39' E 023°45'714.2
2018-Aug-03 02:31N 37°44' E 023°39'714.8
2018-Aug-03 02:01N 37°51' E 023°36'611.4
2018-Aug-03 01:30N 37°57' E 023°36'0 0.9
2018-Aug-03 01:00N 37°57' E 023°36'0 0.0
2018-Aug-03 00:30N 37°57' E 023°36'0 0.0
2018-Aug-03 00:00N 37°57' E 023°36'0 0.0
2018-Aug-02 23:30N 37°57' E 023°36'0 0.0
2018-Aug-02 23:00N 37°57' E 023°36'0 0.0
2018-Aug-02 22:30N 37°57' E 023°36'0 0.0
2018-Aug-02 22:00N 37°57' E 023°36'0 0.0
2018-Aug-02 21:30N 37°57' E 023°36'0 0.0
2018-Aug-02 21:00N 37°57' E 023°36'0 0.0
2018-Aug-02 20:30N 37°57' E 023°36'0 0.0
2018-Aug-02 20:00N 37°57' E 023°36'0 0.0
2018-Aug-02 19:30N 37°57' E 023°36'0 0.0
2018-Aug-02 19:00N 37°57' E 023°36'0 0.0
2018-Aug-02 18:30N 37°57' E 023°36'0 0.0
2018-Aug-02 18:00N 37°57' E 023°36'0 0.0
2018-Aug-02 17:30N 37°57' E 023°36'0 0.0
2018-Aug-02 17:00N 37°57' E 023°36'0 0.0
2018-Aug-02 16:30N 37°57' E 023°36'0 0.0
2018-Aug-02 16:00N 37°57' E 023°36'0 0.0
2018-Aug-02 15:30N 37°57' E 023°36'  

Dump ship's entire track history